createdAt,value
2023-06-17T00:00:09.580Z,11.60
2023-06-17T00:02:37.708Z,11.60
2023-06-17T00:05:07.280Z,11.60
2023-06-17T00:07:35.111Z,11.60
2023-06-17T00:10:03.238Z,11.60
2023-06-17T00:12:32.956Z,11.70
2023-06-17T00:15:02.435Z,11.70
2023-06-17T00:17:32.452Z,11.60
2023-06-17T00:20:02.094Z,11.50
2023-06-17T00:22:30.729Z,11.50
2023-06-17T00:24:58.801Z,11.50
2023-06-17T00:27:26.591Z,11.40
2023-06-17T00:29:54.938Z,11.40
2023-06-17T00:32:22.770Z,11.30
2023-06-17T00:34:51.983Z,11.40
2023-06-17T00:37:19.788Z,11.40
2023-06-17T00:39:47.575Z,11.30
2023-06-17T00:42:15.639Z,11.20
2023-06-17T00:44:43.971Z,11.20
2023-06-17T00:47:13.941Z,11.10
2023-06-17T00:49:42.825Z,11.00
2023-06-17T00:54:44.534Z,10.90
2023-06-17T00:57:14.653Z,10.90
2023-06-17T00:59:44.254Z,10.80
2023-06-17T01:02:14.805Z,10.80
2023-06-17T01:04:47.409Z,10.60
2023-06-17T01:07:25.857Z,10.60
2023-06-17T01:10:03.975Z,10.60
2023-06-17T01:12:32.428Z,10.60
2023-06-17T01:15:02.245Z,10.60
2023-06-17T01:17:31.105Z,10.60
2023-06-17T01:20:00.012Z,10.50
2023-06-17T01:22:29.451Z,10.50
2023-06-17T01:25:02.253Z,10.50
2023-06-17T01:27:30.605Z,10.50
2023-06-17T01:29:59.606Z,10.50
2023-06-17T01:32:27.576Z,10.40
2023-06-17T01:35:01.681Z,10.40
2023-06-17T01:37:36.987Z,10.40
2023-06-17T01:40:07.755Z,10.40
2023-06-17T01:42:38.625Z,10.40
2023-06-17T01:45:08.814Z,10.40
2023-06-17T01:47:36.790Z,10.50
2023-06-17T01:50:06.628Z,10.50
2023-06-17T01:52:35.311Z,10.50
2023-06-17T01:55:04.058Z,10.40
2023-06-17T01:57:33.231Z,10.30
2023-06-17T02:00:01.068Z,10.30
2023-06-17T02:02:28.952Z,10.40
2023-06-17T02:04:57.046Z,10.30
2023-06-17T02:07:26.710Z,10.30
2023-06-17T02:09:54.589Z,10.20
2023-06-17T02:12:23.159Z,10.10
2023-06-17T02:14:52.359Z,10.00
2023-06-17T02:17:20.144Z,9.90
2023-06-17T02:19:48.167Z,9.80
2023-06-17T02:22:16.121Z,9.80
2023-06-17T02:24:44.232Z,9.90
2023-06-17T02:27:12.060Z,9.80
2023-06-17T02:29:40.065Z,9.80
2023-06-17T02:32:10.980Z,9.80
2023-06-17T02:34:39.040Z,9.70
2023-06-17T02:37:08.533Z,9.70
2023-06-17T02:39:36.349Z,9.70
2023-06-17T02:42:05.117Z,9.60
2023-06-17T02:44:32.932Z,9.60
2023-06-17T02:47:02.409Z,9.50
2023-06-17T02:49:31.778Z,9.60
2023-06-17T02:51:59.582Z,9.70
2023-06-17T02:54:27.857Z,9.80
2023-06-17T02:56:56.736Z,9.80
2023-06-17T02:59:24.860Z,9.70
2023-06-17T03:01:52.932Z,9.70
2023-06-17T03:04:21.772Z,9.60
2023-06-17T03:06:52.314Z,9.50
2023-06-17T03:09:20.873Z,9.40
2023-06-17T03:11:48.727Z,9.40
2023-06-17T03:14:20.434Z,9.30
2023-06-17T03:16:48.534Z,9.30
2023-06-17T03:19:16.746Z,9.20
2023-06-17T03:21:46.217Z,9.30
2023-06-17T03:24:15.492Z,9.40
2023-06-17T03:26:43.416Z,9.50
2023-06-17T03:29:11.415Z,9.60
2023-06-17T03:31:39.470Z,9.60
2023-06-17T03:34:07.276Z,9.70
2023-06-17T03:36:35.071Z,9.60
2023-06-17T03:39:02.924Z,9.60
2023-06-17T03:41:32.113Z,9.80
2023-06-17T03:43:59.927Z,9.90
2023-06-17T03:46:27.731Z,10.10
2023-06-17T03:48:55.686Z,10.30
2023-06-17T03:51:23.499Z,10.50
2023-06-17T03:53:51.425Z,10.80
2023-06-17T03:56:19.791Z,11.10
2023-06-17T03:58:48.922Z,11.40
2023-06-17T04:01:16.786Z,11.50
2023-06-17T04:03:44.924Z,11.40
2023-06-17T04:06:14.997Z,11.20
2023-06-17T04:08:45.506Z,11.00
2023-06-17T04:11:13.330Z,10.80
2023-06-17T04:13:41.293Z,10.70
2023-06-17T04:16:10.453Z,10.70
2023-06-17T04:18:38.272Z,10.70
2023-06-17T04:21:06.595Z,10.70
2023-06-17T04:23:34.598Z,10.70
2023-06-17T04:26:02.883Z,10.80
2023-06-17T04:28:33.753Z,10.90
2023-06-17T04:31:03.304Z,11.10
2023-06-17T04:33:32.668Z,11.20
2023-06-17T04:36:00.529Z,11.30
2023-06-17T04:38:28.394Z,11.40
2023-06-17T04:40:56.166Z,11.60
2023-06-17T04:43:24.171Z,12.10
2023-06-17T04:45:52.550Z,12.30
2023-06-17T04:48:20.756Z,12.50
2023-06-17T04:50:50.130Z,12.40
2023-06-17T04:53:19.290Z,12.80
2023-06-17T04:55:47.080Z,13.00
2023-06-17T04:58:15.053Z,13.20
2023-06-17T05:00:42.859Z,13.30
2023-06-17T05:03:10.759Z,13.50
2023-06-17T05:05:38.629Z,13.40
2023-06-17T05:08:07.940Z,13.60
2023-06-17T05:10:35.783Z,14.30
2023-06-17T05:13:03.599Z,14.40
2023-06-17T05:15:31.388Z,14.60
2023-06-17T05:17:59.219Z,15.20
2023-06-17T05:20:27.021Z,15.70
2023-06-17T05:22:54.810Z,16.50
2023-06-17T05:25:24.007Z,16.90
2023-06-17T05:27:52.286Z,17.10
2023-06-17T05:30:20.375Z,16.30
2023-06-17T05:32:48.586Z,15.90
2023-06-17T05:35:16.452Z,16.00
2023-06-17T05:37:44.244Z,16.20
2023-06-17T05:40:13.058Z,16.60
2023-06-17T05:42:42.211Z,17.40
2023-06-17T05:45:10.239Z,17.60
2023-06-17T05:47:38.035Z,17.70
2023-06-17T05:50:06.428Z,18.20
2023-06-17T05:52:34.271Z,18.40
2023-06-17T05:55:02.061Z,17.40
2023-06-17T05:57:29.825Z,16.40
2023-06-17T05:59:58.942Z,16.10
2023-06-17T06:02:26.765Z,16.20
2023-06-17T06:04:54.595Z,16.80
2023-06-17T06:07:22.362Z,17.30
2023-06-17T06:09:50.167Z,17.70
2023-06-17T06:12:17.958Z,18.00
2023-06-17T06:14:45.795Z,18.40
2023-06-17T06:17:14.985Z,18.60
2023-06-17T06:19:42.737Z,18.40
2023-06-17T06:22:10.577Z,18.80
2023-06-17T06:24:38.566Z,19.10
2023-06-17T06:27:06.891Z,19.00
2023-06-17T06:29:34.704Z,19.70
2023-06-17T06:32:02.533Z,19.80
2023-06-17T06:34:31.895Z,19.90
2023-06-17T06:36:59.692Z,20.20
2023-06-17T06:39:27.863Z,20.90
2023-06-17T06:41:55.936Z,21.00
2023-06-17T06:44:23.711Z,20.80
2023-06-17T06:46:51.502Z,20.90
2023-06-17T06:49:19.300Z,21.50
2023-06-17T06:51:48.425Z,21.30
2023-06-17T06:54:16.326Z,21.80
2023-06-17T06:56:44.590Z,21.00
2023-06-17T06:59:12.353Z,21.10
2023-06-17T07:01:40.601Z,21.80
2023-06-17T07:04:08.452Z,22.40
2023-06-17T07:06:36.472Z,22.80
2023-06-17T07:09:05.617Z,22.90
2023-06-17T07:11:33.468Z,23.30
2023-06-17T07:14:01.355Z,23.60
2023-06-17T07:16:29.171Z,24.10
2023-06-17T07:18:56.997Z,25.00
2023-06-17T07:21:24.779Z,25.00
2023-06-17T07:23:52.807Z,25.40
2023-06-17T07:26:22.036Z,25.60
2023-06-17T07:28:49.813Z,25.10
2023-06-17T07:31:17.758Z,24.70
2023-06-17T07:33:46.112Z,24.90
2023-06-17T07:36:14.323Z,24.90
2023-06-17T07:38:43.241Z,24.80
2023-06-17T07:41:11.139Z,24.50
2023-06-17T07:43:40.296Z,24.90
2023-06-17T07:46:08.571Z,25.70
2023-06-17T07:48:36.509Z,24.90
2023-06-17T07:51:04.370Z,25.00
2023-06-17T07:53:32.127Z,25.80
2023-06-17T07:55:59.919Z,25.90
2023-06-17T07:58:27.693Z,26.20
2023-06-17T08:00:56.816Z,26.10
2023-06-17T08:03:24.708Z,25.80
2023-06-17T08:05:52.542Z,25.30
2023-06-17T08:08:21.270Z,25.30
2023-06-17T08:10:50.125Z,25.40
2023-06-17T08:13:17.920Z,25.10
2023-06-17T08:15:45.718Z,26.10
2023-06-17T08:18:14.861Z,26.50
2023-06-17T08:20:42.637Z,27.00
2023-06-17T08:23:10.413Z,27.60
2023-06-17T08:25:38.199Z,28.00
2023-06-17T08:28:06.162Z,27.60
2023-06-17T08:30:33.984Z,27.20
2023-06-17T08:33:01.930Z,27.40
2023-06-17T08:35:31.097Z,26.60
2023-06-17T08:37:58.878Z,27.30
2023-06-17T08:40:28.776Z,27.30
2023-06-17T08:43:01.866Z,27.80
2023-06-17T08:45:29.813Z,27.60
2023-06-17T08:47:59.079Z,26.70
2023-06-17T08:50:28.553Z,26.20
2023-06-17T08:52:58.561Z,25.50
2023-06-17T08:55:26.490Z,25.50
2023-06-17T08:57:54.253Z,25.30
2023-06-17T09:00:22.232Z,25.00
2023-06-17T09:02:51.157Z,25.40
2023-06-17T09:05:19.133Z,25.20
2023-06-17T09:07:47.046Z,24.80
2023-06-17T09:10:17.763Z,24.70
2023-06-17T09:12:45.744Z,25.20
2023-06-17T09:15:17.733Z,25.30
2023-06-17T09:17:47.183Z,25.70
2023-06-17T09:20:17.397Z,26.00
2023-06-17T09:22:47.265Z,26.90
2023-06-17T09:25:17.538Z,27.80
2023-06-17T09:30:24.379Z,28.30
2023-06-17T09:32:53.823Z,28.10
2023-06-17T09:35:21.818Z,28.00
2023-06-17T09:38:02.484Z,28.60
2023-06-17T09:40:34.498Z,28.80
2023-06-17T09:43:20.812Z,28.20
2023-06-17T09:45:55.845Z,27.70
2023-06-17T09:48:25.879Z,27.20
2023-06-17T09:50:57.154Z,27.60
2023-06-17T09:53:28.373Z,27.80
2023-06-17T09:55:58.504Z,28.40
2023-06-17T09:58:30.145Z,28.30
2023-06-17T10:00:59.008Z,27.20
2023-06-17T10:03:27.949Z,26.20
2023-06-17T10:06:01.267Z,26.60
2023-06-17T10:08:31.740Z,27.00
2023-06-17T10:11:01.952Z,27.10
2023-06-17T10:13:33.522Z,28.50
2023-06-17T10:16:02.694Z,28.80
2023-06-17T10:18:31.811Z,27.90
2023-06-17T10:21:01.267Z,27.50
2023-06-17T10:23:31.439Z,27.20
2023-06-17T10:25:59.371Z,27.40
2023-06-17T10:28:44.774Z,27.10
2023-06-17T10:31:25.085Z,27.50
2023-06-17T10:33:55.856Z,28.00
2023-06-17T10:36:24.439Z,28.30
2023-06-17T10:38:57.586Z,27.60
2023-06-17T10:42:01.049Z,26.90
2023-06-17T10:44:41.147Z,26.90
2023-06-17T10:47:22.058Z,27.70
2023-06-17T10:49:51.059Z,27.80
2023-06-17T10:52:19.201Z,28.00
2023-06-17T10:54:52.586Z,27.90
2023-06-17T10:57:33.060Z,28.50
2023-06-17T11:00:02.234Z,29.10
2023-06-17T11:02:32.061Z,29.30
2023-06-17T11:05:02.530Z,29.30
2023-06-17T11:07:31.458Z,29.20
2023-06-17T11:10:00.946Z,28.30
2023-06-17T11:12:29.120Z,27.00
2023-06-17T11:15:01.144Z,26.30
2023-06-17T11:17:29.376Z,27.00
2023-06-17T11:19:58.057Z,27.00
2023-06-17T11:22:25.865Z,26.60
2023-06-17T11:24:53.678Z,26.90
2023-06-17T11:27:21.533Z,26.60
2023-06-17T11:29:49.442Z,27.30
2023-06-17T11:32:22.711Z,27.50
2023-06-17T11:34:52.128Z,26.60
2023-06-17T11:37:21.252Z,25.90
2023-06-17T11:39:49.078Z,25.90
2023-06-17T11:42:17.574Z,26.30
2023-06-17T11:44:45.488Z,26.40
2023-06-17T11:47:13.261Z,27.00
2023-06-17T11:49:43.971Z,27.70
2023-06-17T11:52:12.884Z,27.60
2023-06-17T11:54:46.639Z,27.70
2023-06-17T11:57:18.962Z,27.20
2023-06-17T11:59:46.863Z,26.70
2023-06-17T12:02:15.127Z,26.60
2023-06-17T12:04:46.819Z,26.80
2023-06-17T12:07:14.982Z,26.90
2023-06-17T12:09:52.973Z,27.10
2023-06-17T12:12:28.396Z,27.00
2023-06-17T12:15:02.742Z,26.30
2023-06-17T12:17:39.895Z,26.40
2023-06-17T12:20:14.286Z,27.00
2023-06-17T12:22:42.079Z,27.30
2023-06-17T12:25:11.104Z,27.60
2023-06-17T12:27:39.502Z,27.80
2023-06-17T12:30:09.332Z,27.90
2023-06-17T12:32:39.504Z,28.00
2023-06-17T12:35:10.900Z,27.80
2023-06-17T12:37:42.062Z,28.10
2023-06-17T12:40:10.822Z,28.50
2023-06-17T12:42:39.597Z,28.40
2023-06-17T12:45:08.729Z,28.30
2023-06-17T12:47:37.767Z,28.10
2023-06-17T12:50:06.178Z,28.00
2023-06-17T12:52:35.798Z,28.10
2023-06-17T12:55:05.742Z,27.50
2023-06-17T12:57:33.571Z,26.70
2023-06-17T13:00:02.107Z,27.20
2023-06-17T13:02:32.310Z,27.40
2023-06-17T13:05:00.529Z,27.30
2023-06-17T13:07:29.144Z,27.20
2023-06-17T13:09:58.357Z,27.40
2023-06-17T13:12:26.282Z,27.50
2023-06-17T13:14:54.082Z,27.60
2023-06-17T13:17:22.188Z,27.20
2023-06-17T13:19:49.961Z,27.00
2023-06-17T13:22:17.957Z,26.90
2023-06-17T13:24:45.722Z,27.30
2023-06-17T13:27:19.631Z,27.40
2023-06-17T13:29:47.503Z,27.30
2023-06-17T13:32:17.120Z,27.70
2023-06-17T13:34:47.203Z,27.90
2023-06-17T13:37:15.011Z,28.10
2023-06-17T13:39:42.950Z,27.50
2023-06-17T13:42:11.020Z,27.50
2023-06-17T13:44:40.348Z,27.50
2023-06-17T13:47:08.505Z,27.70
2023-06-17T13:49:36.526Z,27.50
2023-06-17T13:52:06.602Z,27.20
2023-06-17T13:54:34.387Z,27.50
2023-06-17T13:57:02.140Z,27.60
2023-06-17T13:59:30.149Z,27.50
2023-06-17T14:01:59.315Z,27.60
2023-06-17T14:04:27.830Z,27.60
2023-06-17T14:06:56.569Z,27.60
2023-06-17T14:09:24.343Z,27.50
2023-06-17T14:11:52.403Z,27.10
2023-06-17T14:14:20.308Z,27.00
2023-06-17T14:16:48.087Z,27.30
2023-06-17T14:19:17.289Z,27.40
2023-06-17T14:21:56.154Z,27.70
2023-06-17T14:24:24.252Z,27.70
2023-06-17T14:27:20.858Z,27.60
2023-06-17T14:29:49.530Z,27.40
2023-06-17T14:32:18.313Z,27.40
2023-06-17T14:34:47.738Z,27.50
2023-06-17T14:37:15.528Z,27.80
2023-06-17T14:39:43.291Z,28.30
2023-06-17T14:42:12.733Z,28.50
2023-06-17T14:44:40.642Z,28.40
2023-06-17T14:47:08.587Z,27.80
2023-06-17T14:49:36.428Z,27.50
2023-06-17T14:52:05.940Z,27.40
2023-06-17T14:54:34.342Z,27.10
2023-06-17T14:57:02.430Z,26.60
2023-06-17T14:59:30.232Z,26.40
2023-06-17T15:01:58.053Z,26.70
2023-06-17T15:04:25.807Z,27.30
2023-06-17T15:06:53.591Z,27.50
2023-06-17T15:09:29.246Z,27.80
2023-06-17T15:11:58.041Z,28.00
2023-06-17T15:14:27.268Z,28.00
2023-06-17T15:16:55.108Z,28.10
2023-06-17T15:19:23.172Z,28.00
2023-06-17T15:21:51.040Z,28.10
2023-06-17T15:24:19.231Z,28.30
2023-06-17T15:26:48.881Z,28.30
2023-06-17T15:29:17.290Z,28.40
2023-06-17T15:31:45.303Z,28.70
2023-06-17T15:34:13.155Z,28.00
2023-06-17T15:36:41.423Z,28.10
2023-06-17T15:39:19.971Z,27.30
2023-06-17T15:41:50.387Z,27.20
2023-06-17T15:44:18.354Z,26.90
2023-06-17T15:46:46.487Z,27.20
2023-06-17T15:49:14.644Z,27.50
2023-06-17T15:51:42.435Z,27.70
2023-06-17T15:54:11.337Z,27.50
2023-06-17T15:56:40.275Z,27.40
2023-06-17T15:59:09.401Z,27.20
2023-06-17T16:01:37.228Z,27.00
2023-06-17T16:04:36.598Z,26.90
2023-06-17T16:07:06.698Z,27.10
2023-06-17T16:09:37.119Z,27.50
2023-06-17T16:12:05.902Z,27.70
2023-06-17T16:14:36.805Z,27.80
2023-06-17T16:17:07.413Z,27.70
2023-06-17T16:19:36.719Z,27.50
2023-06-17T16:22:05.826Z,26.90
2023-06-17T16:24:34.459Z,26.50
2023-06-17T16:27:02.489Z,26.50
2023-06-17T16:29:32.004Z,26.50
2023-06-17T16:32:01.114Z,26.70
2023-06-17T16:34:29.073Z,26.70
2023-06-17T16:36:56.847Z,26.60
2023-06-17T16:39:24.656Z,26.80
2023-06-17T16:41:52.438Z,27.10
2023-06-17T16:44:20.526Z,27.40
2023-06-17T16:46:48.761Z,27.40
2023-06-17T16:49:17.961Z,27.00
2023-06-17T16:51:46.548Z,26.80
2023-06-17T16:54:14.320Z,26.60
2023-06-17T16:56:42.092Z,26.60
2023-06-17T16:59:09.913Z,26.50
2023-06-17T17:01:37.812Z,26.60
2023-06-17T17:04:10.989Z,26.60
2023-06-17T17:06:40.821Z,26.60
2023-06-17T17:09:08.760Z,26.60
2023-06-17T17:11:36.661Z,26.80
2023-06-17T17:14:04.585Z,26.90
2023-06-17T17:16:32.582Z,27.00
2023-06-17T17:19:00.411Z,26.90
2023-06-17T17:21:28.782Z,26.70
2023-06-17T17:23:58.058Z,26.80
2023-06-17T17:26:26.258Z,26.40
2023-06-17T17:28:54.040Z,26.20
2023-06-17T17:31:21.831Z,26.10
2023-06-17T17:33:51.664Z,25.90
2023-06-17T17:36:19.946Z,25.80
2023-06-17T17:38:48.498Z,25.90
2023-06-17T17:41:17.643Z,25.90
2023-06-17T17:43:45.453Z,26.00
2023-06-17T17:46:13.299Z,25.90
2023-06-17T17:48:41.677Z,25.80
2023-06-17T17:51:09.476Z,25.60
2023-06-17T17:53:37.431Z,25.70
2023-06-17T17:56:05.568Z,25.70
2023-06-17T17:58:34.728Z,25.80
2023-06-17T18:01:04.373Z,25.90
2023-06-17T18:03:32.515Z,25.70
2023-06-17T18:06:00.531Z,25.70
2023-06-17T18:08:28.323Z,25.60
2023-06-17T18:10:56.104Z,25.50
2023-06-17T18:13:23.859Z,25.50
2023-06-17T18:15:53.050Z,25.40
2023-06-17T18:18:20.881Z,25.10
2023-06-17T18:20:48.772Z,25.00
2023-06-17T18:23:16.612Z,24.80
2023-06-17T18:25:44.485Z,24.70
2023-06-17T18:28:12.242Z,24.50
2023-06-17T18:30:40.027Z,24.30
2023-06-17T18:33:09.157Z,24.00
2023-06-17T18:35:36.982Z,23.80
2023-06-17T18:38:04.764Z,23.60
2023-06-17T18:40:32.560Z,23.40
2023-06-17T18:43:00.392Z,23.30
2023-06-17T18:45:28.279Z,23.10
2023-06-17T18:47:56.247Z,23.00
2023-06-17T18:50:26.052Z,22.90
2023-06-17T18:52:53.968Z,22.80
2023-06-17T18:55:21.761Z,22.70
2023-06-17T18:57:50.092Z,22.50
2023-06-17T19:00:18.963Z,22.50
2023-06-17T19:02:47.077Z,22.40
2023-06-17T19:05:14.847Z,22.30
2023-06-17T19:07:45.257Z,22.30
2023-06-17T19:10:13.278Z,22.20
2023-06-17T19:12:41.212Z,22.10
2023-06-17T19:15:10.593Z,22.00
2023-06-17T19:17:38.818Z,21.90
2023-06-17T19:20:08.181Z,21.80
2023-06-17T19:22:36.762Z,21.60
2023-06-17T19:25:06.689Z,21.50
2023-06-17T19:27:35.000Z,21.40
2023-06-17T19:30:04.465Z,21.20
2023-06-17T19:32:33.035Z,21.00
2023-06-17T19:35:01.623Z,20.80
2023-06-17T19:37:30.709Z,20.60
2023-06-17T19:39:59.205Z,20.50
2023-06-17T19:42:28.331Z,20.30
2023-06-17T19:44:57.880Z,20.20
2023-06-17T19:47:27.483Z,20.10
2023-06-17T19:49:56.715Z,19.80
2023-06-17T19:52:24.625Z,19.70
2023-06-17T19:54:53.704Z,19.50
2023-06-17T19:57:21.509Z,19.30
2023-06-17T19:59:52.047Z,19.20
2023-06-17T20:02:20.588Z,19.10
2023-06-17T20:04:48.492Z,19.00
2023-06-17T20:07:16.255Z,18.90
2023-06-17T20:09:44.043Z,18.80
2023-06-17T20:12:13.072Z,18.70
2023-06-17T20:14:41.348Z,18.50
2023-06-17T20:17:11.432Z,18.40
2023-06-17T20:19:39.378Z,18.30
2023-06-17T20:22:07.540Z,18.20
2023-06-17T20:24:35.497Z,18.20
2023-06-17T20:27:03.398Z,18.10
2023-06-17T20:29:31.173Z,18.10
2023-06-17T20:31:58.970Z,18.00
2023-06-17T20:34:28.078Z,17.90
2023-06-17T20:36:55.832Z,17.80
2023-06-17T20:39:23.592Z,17.70
2023-06-17T20:41:51.370Z,17.60
2023-06-17T20:44:19.239Z,17.50
2023-06-17T20:46:47.106Z,17.40
2023-06-17T20:49:14.987Z,17.20
2023-06-17T20:51:44.074Z,17.10
2023-06-17T20:54:11.897Z,17.00
2023-06-17T20:56:42.501Z,17.00
2023-06-17T20:59:10.408Z,17.00
2023-06-17T21:01:38.205Z,17.00
2023-06-17T21:04:06.239Z,16.90
2023-06-17T21:06:33.994Z,16.80
2023-06-17T21:09:03.541Z,16.70
2023-06-17T21:11:31.558Z,16.60
2023-06-17T21:14:01.022Z,16.40
2023-06-17T21:16:29.659Z,16.30
2023-06-17T21:18:57.601Z,16.30
2023-06-17T21:21:27.868Z,16.30
2023-06-17T21:23:55.751Z,16.30
2023-06-17T21:26:24.914Z,16.30
2023-06-17T21:28:52.713Z,16.30
2023-06-17T21:31:20.557Z,16.20
2023-06-17T21:33:51.053Z,16.10
2023-06-17T21:36:18.913Z,16.00
2023-06-17T21:38:46.739Z,15.80
2023-06-17T21:41:14.543Z,15.80
2023-06-17T21:43:43.643Z,15.80
2023-06-17T21:46:11.498Z,15.80
2023-06-17T21:48:43.006Z,15.80
2023-06-17T21:51:10.856Z,15.80
2023-06-17T21:53:38.629Z,15.80
2023-06-17T21:56:06.641Z,15.90
2023-06-17T21:58:34.428Z,15.90
2023-06-17T22:01:03.661Z,15.90
2023-06-17T22:03:31.540Z,15.80
2023-06-17T22:05:59.394Z,15.80
2023-06-17T22:08:37.970Z,15.80
2023-06-17T22:11:09.888Z,15.70
2023-06-17T22:13:37.741Z,15.60
2023-06-17T22:16:07.141Z,15.40
2023-06-17T22:18:35.103Z,15.20
2023-06-17T22:21:02.903Z,15.10
2023-06-17T22:23:30.660Z,14.90
2023-06-17T22:25:58.425Z,14.80
2023-06-17T22:28:26.573Z,14.70
2023-06-17T22:30:54.450Z,14.50
2023-06-17T22:33:23.585Z,14.50
2023-06-17T22:35:51.442Z,14.40
2023-06-17T22:38:19.244Z,14.40
2023-06-17T22:40:47.022Z,14.30
2023-06-17T22:43:16.667Z,14.30
2023-06-17T22:45:44.502Z,14.30
2023-06-17T22:48:12.292Z,14.20
2023-06-17T22:50:41.607Z,14.20
2023-06-17T22:53:09.448Z,14.00
2023-06-17T22:55:37.995Z,13.90
2023-06-17T22:58:05.826Z,14.00
2023-06-17T23:00:33.588Z,14.00
2023-06-17T23:03:01.448Z,13.90
2023-06-17T23:05:29.337Z,13.90
2023-06-17T23:07:58.422Z,13.90
2023-06-17T23:10:26.251Z,13.80
2023-06-17T23:12:54.019Z,13.70
2023-06-17T23:15:21.821Z,13.70
2023-06-17T23:17:49.740Z,13.60
2023-06-17T23:20:17.630Z,13.50
2023-06-17T23:22:45.404Z,13.50
2023-06-17T23:25:16.827Z,13.50
2023-06-17T23:27:49.577Z,13.60
2023-06-17T23:30:18.683Z,13.60
2023-06-17T23:32:47.618Z,13.70
2023-06-17T23:35:15.629Z,13.60
2023-06-17T23:37:43.583Z,13.60
2023-06-17T23:40:12.112Z,13.70
2023-06-17T23:42:41.501Z,13.70
2023-06-17T23:45:12.722Z,13.60
2023-06-17T23:47:40.990Z,13.50
2023-06-17T23:50:09.439Z,13.40
2023-06-17T23:52:37.203Z,13.30
2023-06-17T23:55:05.451Z,13.10
2023-06-17T23:57:33.225Z,13.10
